Time,TemperatureF,DewpointF,PressureIn,WindDirection,WindDirectionDegrees,WindSpeedMPH,WindSpeedGustMPH,Humidity,HourlyPrecipIn,Conditions,Clouds,dailyrainin,SoftwareType,DateUTC
2013-01-27 00:00:00,22.6,18.5,30.45,ESE,120,0.0,0.0,84,0.00,,---,0.00,VWS V14.00,2013-01-27 05:00:00,
2013-01-27 00:30:00,22.5,18.4,30.46,ESE,120,0.0,0.0,84,0.00,,---,0.00,VWS V14.00,2013-01-27 05:30:00,
2013-01-27 01:00:00,22.5,18.7,30.45,ESE,120,0.0,0.0,85,0.00,,---,0.00,VWS V14.00,2013-01-27 06:00:00,
2013-01-27 01:30:00,22.7,18.3,30.43,SE,129,0.0,2.0,83,0.00,,---,0.00,VWS V14.00,2013-01-27 06:30:00,
2013-01-27 02:00:00,22.5,18.1,30.43,SE,125,0.0,0.0,83,0.00,,---,0.00,VWS V14.00,2013-01-27 07:00:00,
2013-01-27 02:30:00,21.7,17.3,30.44,SE,125,0.0,1.0,83,0.00,,---,0.00,VWS V14.00,2013-01-27 07:30:00,
2013-01-27 03:00:00,20.0,16.2,30.46,SE,125,0.0,0.0,85,0.00,,---,0.00,VWS V14.00,2013-01-27 08:00:00,
2013-01-27 03:30:00,18.8,15.8,30.45,SE,125,0.0,0.0,88,0.00,,---,0.00,VWS V14.00,2013-01-27 08:30:00,
2013-01-27 04:00:00,20.4,17.2,30.44,SE,135,0.0,2.0,87,0.00,,---,0.00,VWS V14.00,2013-01-27 09:00:00,
2013-01-27 04:30:00,21.5,17.4,30.44,ESE,116,2.0,3.0,84,0.00,,---,0.00,VWS V14.00,2013-01-27 09:30:00,
2013-01-27 05:00:00,22.2,17.5,30.44,East,90,1.0,5.0,82,0.00,,---,0.00,VWS V14.00,2013-01-27 10:00:00,
2013-01-27 05:30:00,22.2,17.3,30.45,SSE,148,0.0,7.0,81,0.00,,---,0.00,VWS V14.00,2013-01-27 10:30:00,
2013-01-27 06:00:00,21.9,17.3,30.43,SE,140,2.0,5.0,82,0.00,,---,0.00,VWS V14.00,2013-01-27 11:00:00,
2013-01-27 06:30:00,21.3,17.0,30.43,SE,134,1.0,4.0,83,0.00,,---,0.00,VWS V14.00,2013-01-27 11:30:00,
2013-01-27 07:00:00,20.7,16.6,30.44,SE,131,0.0,4.0,84,0.00,,---,0.00,VWS V14.00,2013-01-27 12:00:00,
2013-01-27 07:30:00,20.5,16.4,30.44,ESE,119,3.0,6.0,84,0.00,,---,0.00,VWS V14.00,2013-01-27 12:30:00,
2013-01-27 08:00:00,20.8,16.7,30.44,SE,139,3.0,5.0,84,0.00,,---,0.00,VWS V14.00,2013-01-27 13:00:00,
2013-01-27 08:30:00,21.2,16.9,30.45,ESE,117,2.0,8.0,83,0.00,,---,0.00,VWS V14.00,2013-01-27 13:30:00,
2013-01-27 09:00:00,22.2,17.5,30.44,SE,134,2.0,6.0,82,0.00,,---,0.00,VWS V14.00,2013-01-27 14:00:00,
2013-01-27 09:30:00,24.6,19.0,30.44,ESE,115,4.0,8.0,79,0.00,,---,0.00,VWS V14.01,2013-01-27 14:30:00,
2013-01-27 10:00:00,24.2,18.6,30.42,ESE,117,4.0,10.0,79,0.00,,---,0.00,VWS V14.00,2013-01-27 15:00:00,
2013-01-27 10:30:00,24.6,19.0,30.44,ESE,115,4.0,8.0,79,0.00,,---,0.00,VWS V14.00,2013-01-27 15:30:00,
2013-01-27 11:00:00,25.3,19.7,30.44,ESE,107,6.0,7.0,79,0.00,,---,0.00,VWS V14.00,2013-01-27 16:00:00,
2013-01-27 11:30:00,26.8,20.6,30.43,ESE,117,3.0,8.0,77,0.00,,---,0.00,VWS V14.00,2013-01-27 16:30:00,
2013-01-27 12:00:00,28.2,21.6,30.41,SSE,165,3.0,7.0,76,0.00,,---,0.00,VWS V14.00,2013-01-27 17:00:00,
2013-01-27 12:30:00,29.0,22.1,30.41,SSE,150,3.0,7.0,75,0.00,,---,0.00,VWS V14.00,2013-01-27 17:30:00,
2013-01-27 13:00:00,29.8,22.5,30.38,East,94,4.0,7.0,74,0.00,,---,0.00,VWS V14.00,2013-01-27 18:00:00,
2013-01-27 13:30:00,30.4,23.1,30.36,ESE,112,2.0,6.0,74,0.00,,---,0.00,VWS V14.00,2013-01-27 18:30:00,
2013-01-27 14:00:00,30.2,23.6,30.32,ESE,112,2.0,6.0,76,0.00,,---,0.00,VWS V14.00,2013-01-27 19:00:00,
2013-01-27 14:30:00,30.1,23.5,30.30,ESE,112,3.0,8.0,76,0.00,,---,0.00,VWS V14.00,2013-01-27 19:30:00,
2013-01-27 15:00:00,30.3,23.7,30.30,ESE,112,3.0,9.0,76,0.00,,---,0.00,VWS V14.00,2013-01-27 20:00:00,
2013-01-27 15:30:00,30.2,23.9,30.29,ESE,112,2.0,8.0,77,0.00,,---,0.00,VWS V14.00,2013-01-27 20:30:00,
2013-01-27 16:00:00,30.0,24.0,30.27,ESE,112,2.0,6.0,78,0.00,,---,0.00,VWS V14.00,2013-01-27 21:00:00,
2013-01-27 16:30:00,30.2,24.5,30.25,SE,125,2.0,7.0,79,0.00,,---,0.00,VWS V14.01,2013-01-27 21:30:00,
2013-01-27 17:00:00,30.0,24.3,30.23,ESE,107,4.0,5.0,79,0.00,,---,0.00,VWS V14.00,2013-01-27 22:00:00,
2013-01-27 17:30:00,30.2,24.5,30.25,SE,125,2.0,7.0,79,0.00,,---,0.00,VWS V14.00,2013-01-27 22:30:00,
2013-01-27 18:00:00,30.2,24.8,30.24,ESE,120,3.0,8.0,80,0.00,,---,0.00,VWS V14.00,2013-01-27 23:00:00,
2013-01-27 18:30:00,30.4,26.4,30.29,East,84,2.0,6.0,85,0.00,,---,0.00,VWS V14.00,2013-01-27 23:30:00,
2013-01-27 19:00:00,30.4,27.3,30.25,ESE,115,4.0,6.0,88,0.00,,---,0.00,VWS V14.00,2013-01-28 00:00:00,
2013-01-27 19:30:00,30.5,27.6,30.24,ESE,119,3.0,9.0,89,0.00,,---,0.00,VWS V14.00,2013-01-28 00:30:00,
2013-01-27 20:00:00,30.8,28.2,30.20,SE,141,3.0,8.0,90,0.00,,---,0.00,VWS V14.00,2013-01-28 01:00:00,
2013-01-27 20:30:00,31.2,28.9,30.18,ESE,103,1.0,11.0,91,0.00,,---,0.00,VWS V14.00,2013-01-28 01:30:00,
2013-01-27 21:00:00,31.6,29.3,30.15,SE,134,3.0,10.0,91,0.00,,---,0.00,VWS V14.00,2013-01-28 02:00:00,
2013-01-27 21:30:00,31.7,29.6,30.14,SSE,150,7.0,11.0,92,0.00,,---,0.00,VWS V14.00,2013-01-28 02:30:00,
2013-01-27 22:00:00,32.2,30.1,30.10,ESE,107,4.0,11.0,92,0.00,,---,0.00,VWS V14.00,2013-01-28 03:00:00,
2013-01-27 22:30:00,32.9,30.8,30.09,SSW,203,2.0,12.0,92,0.00,,---,0.00,VWS V14.00,2013-01-28 03:30:00,
2013-01-27 23:00:00,32.9,31.4,30.10,SSE,150,3.0,11.0,94,0.05,,---,0.05,VWS V14.00,2013-01-28 04:00:00,
2013-01-27 23:30:00,33.3,32.0,30.08,SSW,194,4.0,11.0,95,0.10,,---,0.10,VWS V14.00,2013-01-28 04:30:00,